KUGN/UGN METAR and TAF weather

Enter ICAO airport designator
Station Type Date Time Source
KUGN METAR 2019/06/18 14:55 UTC NOAA

KUGN 181455Z 00000KT 10SM CLR 18/14 A2997 RMK AO2 SLP146 T01780139 55001


Station Type Date Time Source
KUGN Decoded METAR 2019/06/18 14:55 UTC NOAA

CHICAGO/WAUKEGAN REGIONAL, IL, United States (KUGN) 42-25N 087-52W
Jun 18, 2019 - 10:55 AM EDT / 2019.06.18 1455 UTC
Wind: Calm:0
Visibility: 10 mile(s):0
Sky conditions: clear
Temperature: 64.0 F (17.8 C)
Dew Point: 57.0 F (13.9 C)
Relative Humidity: 77%
Pressure (altimeter): 29.97 in. Hg (1014 hPa)
Pressure tendency: 0.00 inches (0.1 hPa) lower than three hours ago
ob: KUGN 181455Z 00000KT 10SM CLR 18/14 A2997 RMK AO2 SLP146 T01780139 55001
cycle: 15

Station Type Date Time Source
KUGN TAF UTC NOAA

Error!

Example: see airport list